sensor_id;sensor_type;location;lat;lon;timestamp;P1;durP1;ratioP1;P2;durP2;ratioP2
36215;SDS011;22257;52.232;21.084;2022-08-01T00:01:27;11.97;;;4.75;;
36215;SDS011;22257;52.232;21.084;2022-08-01T00:03:53;9.40;;;5.37;;
36215;SDS011;22257;52.232;21.084;2022-08-01T00:06:19;12.33;;;4.75;;
36215;SDS011;22257;52.232;21.084;2022-08-01T00:08:45;11.68;;;5.42;;
36215;SDS011;22257;52.232;21.084;2022-08-01T00:11:11;15.05;;;5.95;;
36215;SDS011;22257;52.232;21.084;2022-08-01T00:13:37;15.13;;;6.95;;
36215;SDS011;22257;52.232;21.084;2022-08-01T00:16:04;13.85;;;6.60;;
36215;SDS011;22257;52.232;21.084;2022-08-01T00:18:30;14.05;;;6.30;;
36215;SDS011;22257;52.232;21.084;2022-08-01T00:20:56;22.07;;;6.80;;
36215;SDS011;22257;52.232;21.084;2022-08-01T00:23:22;11.12;;;5.45;;
36215;SDS011;22257;52.232;21.084;2022-08-01T00:25:48;11.30;;;6.67;;
36215;SDS011;22257;52.232;21.084;2022-08-01T00:28:14;9.23;;;4.47;;
36215;SDS011;22257;52.232;21.084;2022-08-01T00:30:41;11.57;;;4.60;;
36215;SDS011;22257;52.232;21.084;2022-08-01T00:33:07;16.62;;;4.20;;
36215;SDS011;22257;52.232;21.084;2022-08-01T00:35:34;7.58;;;3.80;;
36215;SDS011;22257;52.232;21.084;2022-08-01T00:38:00;6.78;;;3.40;;
36215;SDS011;22257;52.232;21.084;2022-08-01T00:40:26;4.47;;;2.75;;
36215;SDS011;22257;52.232;21.084;2022-08-01T00:42:52;4.78;;;3.10;;
36215;SDS011;22257;52.232;21.084;2022-08-01T00:45:18;5.35;;;2.87;;
36215;SDS011;22257;52.232;21.084;2022-08-01T00:47:44;6.70;;;2.98;;
36215;SDS011;22257;52.232;21.084;2022-08-01T00:50:10;8.68;;;3.42;;
36215;SDS011;22257;52.232;21.084;2022-08-01T00:52:37;10.48;;;3.17;;
36215;SDS011;22257;52.232;21.084;2022-08-01T00:55:05;5.83;;;2.90;;
36215;SDS011;22257;52.232;21.084;2022-08-01T00:57:32;10.28;;;3.40;;
36215;SDS011;22257;52.232;21.084;2022-08-01T00:59:58;11.75;;;3.00;;
36215;SDS011;22257;52.232;21.084;2022-08-01T01:02:25;5.05;;;3.10;;
36215;SDS011;22257;52.232;21.084;2022-08-01T01:04:51;10.28;;;3.55;;
36215;SDS011;22257;52.232;21.084;2022-08-01T01:07:23;8.80;;;3.50;;
36215;SDS011;22257;52.232;21.084;2022-08-01T01:10:08;5.75;;;3.22;;
36215;SDS011;22257;52.232;21.084;2022-08-01T01:12:44;8.18;;;3.10;;
36215;SDS011;22257;52.232;21.084;2022-08-01T01:15:15;10.10;;;3.33;;
36215;SDS011;22257;52.232;21.084;2022-08-01T01:17:51;7.00;;;3.27;;
36215;SDS011;22257;52.232;21.084;2022-08-01T01:20:34;9.68;;;4.12;;
36215;SDS011;22257;52.232;21.084;2022-08-01T01:23:05;4.65;;;3.40;;
36215;SDS011;22257;52.232;21.084;2022-08-01T01:25:42;9.45;;;3.90;;
36215;SDS011;22257;52.232;21.084;2022-08-01T01:30:55;7.10;;;4.35;;
36215;SDS011;22257;52.232;21.084;2022-08-01T01:33:23;13.58;;;4.65;;
36215;SDS011;22257;52.232;21.084;2022-08-01T01:35:56;14.80;;;4.75;;
36215;SDS011;22257;52.232;21.084;2022-08-01T01:38:24;10.70;;;4.62;;
36215;SDS011;22257;52.232;21.084;2022-08-01T01:40:56;8.28;;;4.80;;
36215;SDS011;22257;52.232;21.084;2022-08-01T01:43:24;13.48;;;4.92;;
36215;SDS011;22257;52.232;21.084;2022-08-01T01:45:52;12.05;;;5.65;;
36215;SDS011;22257;52.232;21.084;2022-08-01T01:48:20;17.52;;;5.10;;
36215;SDS011;22257;52.232;21.084;2022-08-01T01:50:47;10.80;;;5.20;;
36215;SDS011;22257;52.232;21.084;2022-08-01T01:53:16;9.23;;;4.22;;
36215;SDS011;22257;52.232;21.084;2022-08-01T01:55:44;8.70;;;3.98;;
36215;SDS011;22257;52.232;21.084;2022-08-01T01:58:14;9.98;;;4.05;;
36215;SDS011;22257;52.232;21.084;2022-08-01T02:00:42;9.50;;;3.80;;
36215;SDS011;22257;52.232;21.084;2022-08-01T02:03:10;12.13;;;4.83;;
36215;SDS011;22257;52.232;21.084;2022-08-01T02:05:37;7.62;;;3.35;;
36215;SDS011;22257;52.232;21.084;2022-08-01T02:08:05;7.42;;;3.67;;
36215;SDS011;22257;52.232;21.084;2022-08-01T02:10:34;9.78;;;3.47;;
36215;SDS011;22257;52.232;21.084;2022-08-01T02:13:02;8.60;;;3.60;;
36215;SDS011;22257;52.232;21.084;2022-08-01T02:15:31;13.62;;;3.65;;
36215;SDS011;22257;52.232;21.084;2022-08-01T02:18:00;8.78;;;3.20;;
36215;SDS011;22257;52.232;21.084;2022-08-01T02:20:28;11.43;;;4.10;;
36215;SDS011;22257;52.232;21.084;2022-08-01T02:22:57;16.50;;;3.80;;
36215;SDS011;22257;52.232;21.084;2022-08-01T02:25:36;9.83;;;3.83;;
36215;SDS011;22257;52.232;21.084;2022-08-01T02:28:10;7.58;;;4.10;;
36215;SDS011;22257;52.232;21.084;2022-08-01T02:30:42;8.90;;;4.15;;
36215;SDS011;22257;52.232;21.084;2022-08-01T02:33:15;10.20;;;4.33;;
36215;SDS011;22257;52.232;21.084;2022-08-01T02:35:42;14.68;;;3.83;;
36215;SDS011;22257;52.232;21.084;2022-08-01T02:38:11;8.48;;;3.77;;
36215;SDS011;22257;52.232;21.084;2022-08-01T02:40:41;6.50;;;3.58;;
36215;SDS011;22257;52.232;21.084;2022-08-01T02:43:09;11.60;;;3.93;;
36215;SDS011;22257;52.232;21.084;2022-08-01T02:45:39;9.95;;;3.70;;
36215;SDS011;22257;52.232;21.084;2022-08-01T02:48:14;13.13;;;3.70;;
36215;SDS011;22257;52.232;21.084;2022-08-01T02:50:43;10.78;;;3.70;;
36215;SDS011;22257;52.232;21.084;2022-08-01T02:53:12;14.07;;;3.80;;
36215;SDS011;22257;52.232;21.084;2022-08-01T02:55:40;7.37;;;3.40;;
36215;SDS011;22257;52.232;21.084;2022-08-01T02:58:10;7.78;;;3.67;;
36215;SDS011;22257;52.232;21.084;2022-08-01T03:00:38;13.18;;;3.30;;
36215;SDS011;22257;52.232;21.084;2022-08-01T03:03:06;8.55;;;3.15;;
36215;SDS011;22257;52.232;21.084;2022-08-01T03:05:35;13.68;;;3.52;;
36215;SDS011;22257;52.232;21.084;2022-08-01T03:08:02;9.08;;;3.35;;
36215;SDS011;22257;52.232;21.084;2022-08-01T03:10:29;9.25;;;3.45;;
36215;SDS011;22257;52.232;21.084;2022-08-01T03:12:58;9.65;;;3.45;;
36215;SDS011;22257;52.232;21.084;2022-08-01T03:15:26;13.85;;;3.60;;
36215;SDS011;22257;52.232;21.084;2022-08-01T03:17:56;18.95;;;3.45;;
36215;SDS011;22257;52.232;21.084;2022-08-01T03:20:24;10.53;;;3.33;;
36215;SDS011;22257;52.232;21.084;2022-08-01T03:22:51;15.60;;;3.30;;
36215;SDS011;22257;52.232;21.084;2022-08-01T03:25:19;9.60;;;3.55;;
36215;SDS011;22257;52.232;21.084;2022-08-01T03:27:47;8.88;;;3.92;;
36215;SDS011;22257;52.232;21.084;2022-08-01T03:30:16;7.92;;;3.25;;
36215;SDS011;22257;52.232;21.084;2022-08-01T03:32:42;6.65;;;3.72;;
36215;SDS011;22257;52.232;21.084;2022-08-01T03:35:08;7.53;;;3.30;;
36215;SDS011;22257;52.232;21.084;2022-08-01T03:40:09;9.15;;;3.40;;
36215;SDS011;22257;52.232;21.084;2022-08-01T03:42:42;11.97;;;3.80;;
36215;SDS011;22257;52.232;21.084;2022-08-01T03:45:21;7.45;;;3.65;;
36215;SDS011;22257;52.232;21.084;2022-08-01T03:47:51;18.98;;;3.77;;
36215;SDS011;22257;52.232;21.084;2022-08-01T03:50:20;12.68;;;3.52;;
36215;SDS011;22257;52.232;21.084;2022-08-01T03:52:48;12.58;;;3.85;;
36215;SDS011;22257;52.232;21.084;2022-08-01T03:55:16;13.25;;;4.10;;
36215;SDS011;22257;52.232;21.084;2022-08-01T03:57:44;14.70;;;3.70;;
36215;SDS011;22257;52.232;21.084;2022-08-01T04:00:13;11.22;;;4.15;;
36215;SDS011;22257;52.232;21.084;2022-08-01T04:02:42;10.70;;;3.90;;
36215;SDS011;22257;52.232;21.084;2022-08-01T04:05:08;10.40;;;4.20;;
36215;SDS011;22257;52.232;21.084;2022-08-01T04:07:35;9.20;;;4.10;;
36215;SDS011;22257;52.232;21.084;2022-08-01T04:10:02;12.20;;;3.95;;
36215;SDS011;22257;52.232;21.084;2022-08-01T04:12:30;11.00;;;4.00;;
36215;SDS011;22257;52.232;21.084;2022-08-01T04:14:56;16.37;;;4.45;;
36215;SDS011;22257;52.232;21.084;2022-08-01T04:17:22;9.18;;;4.87;;
36215;SDS011;22257;52.232;21.084;2022-08-01T04:19:48;18.40;;;3.85;;
36215;SDS011;22257;52.232;21.084;2022-08-01T04:22:14;11.63;;;5.05;;
36215;SDS011;22257;52.232;21.084;2022-08-01T04:24:42;9.30;;;4.20;;
36215;SDS011;22257;52.232;21.084;2022-08-01T04:27:13;12.58;;;4.55;;
36215;SDS011;22257;52.232;21.084;2022-08-01T04:29:42;9.35;;;4.45;;
36215;SDS011;22257;52.232;21.084;2022-08-01T04:32:10;16.75;;;4.67;;
36215;SDS011;22257;52.232;21.084;2022-08-01T04:34:39;10.60;;;4.20;;
36215;SDS011;22257;52.232;21.084;2022-08-01T04:37:08;8.33;;;4.28;;
36215;SDS011;22257;52.232;21.084;2022-08-01T04:39:36;15.90;;;5.45;;
36215;SDS011;22257;52.232;21.084;2022-08-01T04:42:05;12.47;;;4.85;;
36215;SDS011;22257;52.232;21.084;2022-08-01T04:44:32;12.82;;;6.65;;
36215;SDS011;22257;52.232;21.084;2022-08-01T04:47:00;12.07;;;5.75;;
36215;SDS011;22257;52.232;21.084;2022-08-01T04:49:31;11.78;;;5.12;;
36215;SDS011;22257;52.232;21.084;2022-08-01T04:51:58;12.20;;;5.47;;
36215;SDS011;22257;52.232;21.084;2022-08-01T04:54:26;10.08;;;4.30;;
36215;SDS011;22257;52.232;21.084;2022-08-01T04:56:54;9.25;;;4.10;;
36215;SDS011;22257;52.232;21.084;2022-08-01T04:59:26;10.72;;;4.35;;
36215;SDS011;22257;52.232;21.084;2022-08-01T05:02:05;14.30;;;6.05;;
36215;SDS011;22257;52.232;21.084;2022-08-01T05:04:36;9.20;;;4.55;;
36215;SDS011;22257;52.232;21.084;2022-08-01T05:07:03;8.30;;;4.67;;
36215;SDS011;22257;52.232;21.084;2022-08-01T05:09:30;10.72;;;4.85;;
36215;SDS011;22257;52.232;21.084;2022-08-01T05:11:57;11.90;;;5.28;;
36215;SDS011;22257;52.232;21.084;2022-08-01T05:14:25;10.55;;;4.87;;
36215;SDS011;22257;52.232;21.084;2022-08-01T05:16:51;10.65;;;5.17;;
36215;SDS011;22257;52.232;21.084;2022-08-01T05:19:18;13.95;;;5.70;;
36215;SDS011;22257;52.232;21.084;2022-08-01T05:21:45;8.15;;;5.55;;
36215;SDS011;22257;52.232;21.084;2022-08-01T05:24:11;15.35;;;6.53;;
36215;SDS011;22257;52.232;21.084;2022-08-01T05:26:39;16.75;;;6.35;;
36215;SDS011;22257;52.232;21.084;2022-08-01T05:29:05;16.10;;;6.50;;
36215;SDS011;22257;52.232;21.084;2022-08-01T05:31:32;22.32;;;8.55;;
36215;SDS011;22257;52.232;21.084;2022-08-01T05:34:04;23.62;;;9.18;;
36215;SDS011;22257;52.232;21.084;2022-08-01T05:36:28;19.98;;;9.28;;
36215;SDS011;22257;52.232;21.084;2022-08-01T05:38:55;18.80;;;10.20;;
36215;SDS011;22257;52.232;21.084;2022-08-01T05:41:21;21.30;;;9.00;;
36215;SDS011;22257;52.232;21.084;2022-08-01T05:43:47;23.18;;;10.05;;
36215;SDS011;22257;52.232;21.084;2022-08-01T05:46:13;22.70;;;10.25;;
36215;SDS011;22257;52.232;21.084;2022-08-01T05:48:39;18.32;;;8.80;;
36215;SDS011;22257;52.232;21.084;2022-08-01T05:51:05;13.45;;;7.10;;
36215;SDS011;22257;52.232;21.084;2022-08-01T05:53:31;19.77;;;7.30;;
36215;SDS011;22257;52.232;21.084;2022-08-01T05:55:59;18.85;;;6.65;;
36215;SDS011;22257;52.232;21.084;2022-08-01T05:58:25;12.15;;;6.15;;
36215;SDS011;22257;52.232;21.084;2022-08-01T06:00:51;15.18;;;6.08;;
36215;SDS011;22257;52.232;21.084;2022-08-01T06:03:18;18.25;;;6.20;;
36215;SDS011;22257;52.232;21.084;2022-08-01T06:05:44;13.08;;;6.60;;
36215;SDS011;22257;52.232;21.084;2022-08-01T06:08:11;15.08;;;6.37;;
36215;SDS011;22257;52.232;21.084;2022-08-01T06:10:37;13.55;;;6.70;;
36215;SDS011;22257;52.232;21.084;2022-08-01T06:13:03;13.15;;;6.53;;
36215;SDS011;22257;52.232;21.084;2022-08-01T06:15:30;15.60;;;6.17;;
36215;SDS011;22257;52.232;21.084;2022-08-01T06:17:57;11.38;;;6.12;;
36215;SDS011;22257;52.232;21.084;2022-08-01T06:20:23;13.72;;;6.17;;
36215;SDS011;22257;52.232;21.084;2022-08-01T06:22:50;14.18;;;6.45;;
36215;SDS011;22257;52.232;21.084;2022-08-01T06:25:17;20.48;;;6.65;;
36215;SDS011;22257;52.232;21.084;2022-08-01T06:27:44;15.28;;;6.80;;
36215;SDS011;22257;52.232;21.084;2022-08-01T06:30:11;21.40;;;7.67;;
36215;SDS011;22257;52.232;21.084;2022-08-01T06:32:37;19.90;;;7.35;;
36215;SDS011;22257;52.232;21.084;2022-08-01T06:35:04;12.88;;;6.87;;
36215;SDS011;22257;52.232;21.084;2022-08-01T06:37:30;19.02;;;7.58;;
36215;SDS011;22257;52.232;21.084;2022-08-01T06:40:01;16.27;;;6.40;;
36215;SDS011;22257;52.232;21.084;2022-08-01T06:42:28;15.93;;;6.67;;
36215;SDS011;22257;52.232;21.084;2022-08-01T06:44:56;14.35;;;6.55;;
36215;SDS011;22257;52.232;21.084;2022-08-01T06:47:23;16.07;;;6.60;;
36215;SDS011;22257;52.232;21.084;2022-08-01T06:49:49;19.65;;;6.00;;
36215;SDS011;22257;52.232;21.084;2022-08-01T06:52:15;10.35;;;4.92;;
36215;SDS011;22257;52.232;21.084;2022-08-01T06:54:41;12.13;;;4.85;;
36215;SDS011;22257;52.232;21.084;2022-08-01T06:57:07;13.68;;;4.72;;
36215;SDS011;22257;52.232;21.084;2022-08-01T06:59:33;19.67;;;7.03;;
36215;SDS011;22257;52.232;21.084;2022-08-01T07:02:00;15.20;;;6.85;;
36215;SDS011;22257;52.232;21.084;2022-08-01T07:04:28;20.82;;;7.70;;
36215;SDS011;22257;52.232;21.084;2022-08-01T07:06:54;19.77;;;6.42;;
36215;SDS011;22257;52.232;21.084;2022-08-01T07:09:21;13.05;;;4.83;;
36215;SDS011;22257;52.232;21.084;2022-08-01T07:11:47;15.88;;;5.87;;
36215;SDS011;22257;52.232;21.084;2022-08-01T07:14:13;9.15;;;3.58;;
36215;SDS011;22257;52.232;21.084;2022-08-01T07:16:39;13.45;;;4.30;;
36215;SDS011;22257;52.232;21.084;2022-08-01T07:19:05;10.40;;;3.98;;
36215;SDS011;22257;52.232;21.084;2022-08-01T07:21:31;6.80;;;2.27;;
36215;SDS011;22257;52.232;21.084;2022-08-01T07:23:57;7.08;;;2.20;;
36215;SDS011;22257;52.232;21.084;2022-08-01T07:26:23;7.92;;;3.00;;
36215;SDS011;22257;52.232;21.084;2022-08-01T07:28:49;11.05;;;3.50;;
36215;SDS011;22257;52.232;21.084;2022-08-01T07:31:15;13.25;;;4.92;;
36215;SDS011;22257;52.232;21.084;2022-08-01T07:33:41;8.58;;;3.70;;
36215;SDS011;22257;52.232;21.084;2022-08-01T07:36:07;7.28;;;2.45;;
36215;SDS011;22257;52.232;21.084;2022-08-01T07:38:34;7.00;;;2.77;;
36215;SDS011;22257;52.232;21.084;2022-08-01T07:40:59;11.80;;;3.20;;
36215;SDS011;22257;52.232;21.084;2022-08-01T07:43:25;10.23;;;3.37;;
36215;SDS011;22257;52.232;21.084;2022-08-01T07:45:51;10.58;;;3.10;;
36215;SDS011;22257;52.232;21.084;2022-08-01T07:48:18;9.45;;;4.00;;
36215;SDS011;22257;52.232;21.084;2022-08-01T07:50:46;14.65;;;4.47;;
36215;SDS011;22257;52.232;21.084;2022-08-01T07:53:12;14.60;;;4.60;;
36215;SDS011;22257;52.232;21.084;2022-08-01T07:55:38;16.25;;;3.62;;
36215;SDS011;22257;52.232;21.084;2022-08-01T07:58:04;10.72;;;3.77;;
36215;SDS011;22257;52.232;21.084;2022-08-01T08:00:30;14.70;;;4.05;;
36215;SDS011;22257;52.232;21.084;2022-08-01T08:02:56;9.45;;;4.00;;
36215;SDS011;22257;52.232;21.084;2022-08-01T08:05:25;10.90;;;4.15;;
36215;SDS011;22257;52.232;21.084;2022-08-01T08:07:52;10.00;;;4.20;;
36215;SDS011;22257;52.232;21.084;2022-08-01T08:10:19;12.18;;;3.20;;
36215;SDS011;22257;52.232;21.084;2022-08-01T08:12:45;8.50;;;3.30;;
36215;SDS011;22257;52.232;21.084;2022-08-01T08:15:12;10.93;;;3.95;;
36215;SDS011;22257;52.232;21.084;2022-08-01T08:17:38;9.13;;;2.85;;
36215;SDS011;22257;52.232;21.084;2022-08-01T08:20:05;10.95;;;3.22;;
36215;SDS011;22257;52.232;21.084;2022-08-01T08:22:33;11.38;;;4.10;;
36215;SDS011;22257;52.232;21.084;2022-08-01T08:25:00;10.32;;;3.47;;
36215;SDS011;22257;52.232;21.084;2022-08-01T08:27:26;9.65;;;3.33;;
36215;SDS011;22257;52.232;21.084;2022-08-01T08:29:52;8.15;;;3.25;;
36215;SDS011;22257;52.232;21.084;2022-08-01T08:32:18;6.90;;;2.60;;
36215;SDS011;22257;52.232;21.084;2022-08-01T08:34:44;4.65;;;2.17;;
36215;SDS011;22257;52.232;21.084;2022-08-01T08:37:10;12.65;;;2.30;;
36215;SDS011;22257;52.232;21.084;2022-08-01T08:39:36;11.97;;;2.80;;
36215;SDS011;22257;52.232;21.084;2022-08-01T08:42:05;5.55;;;3.15;;
36215;SDS011;22257;52.232;21.084;2022-08-01T08:44:32;9.20;;;3.20;;
36215;SDS011;22257;52.232;21.084;2022-08-01T08:46:59;6.50;;;2.75;;
36215;SDS011;22257;52.232;21.084;2022-08-01T08:49:28;6.80;;;2.77;;
36215;SDS011;22257;52.232;21.084;2022-08-01T08:51:58;5.42;;;2.00;;
36215;SDS011;22257;52.232;21.084;2022-08-01T08:54:26;7.97;;;3.15;;
36215;SDS011;22257;52.232;21.084;2022-08-01T08:56:54;13.20;;;2.83;;
36215;SDS011;22257;52.232;21.084;2022-08-01T08:59:21;11.80;;;3.27;;
36215;SDS011;22257;52.232;21.084;2022-08-01T09:01:49;9.23;;;3.22;;
36215;SDS011;22257;52.232;21.084;2022-08-01T09:04:16;10.15;;;3.65;;
36215;SDS011;22257;52.232;21.084;2022-08-01T09:06:43;11.08;;;3.60;;
36215;SDS011;22257;52.232;21.084;2022-08-01T09:09:09;6.97;;;2.10;;
36215;SDS011;22257;52.232;21.084;2022-08-01T09:11:36;8.80;;;2.45;;
36215;SDS011;22257;52.232;21.084;2022-08-01T09:14:03;5.15;;;1.95;;
36215;SDS011;22257;52.232;21.084;2022-08-01T09:16:33;5.10;;;2.00;;
36215;SDS011;22257;52.232;21.084;2022-08-01T09:19:11;5.22;;;2.00;;
36215;SDS011;22257;52.232;21.084;2022-08-01T09:21:39;3.95;;;2.00;;
36215;SDS011;22257;52.232;21.084;2022-08-01T09:24:14;12.30;;;2.27;;
36215;SDS011;22257;52.232;21.084;2022-08-01T09:26:41;9.68;;;2.70;;
36215;SDS011;22257;52.232;21.084;2022-08-01T09:29:08;8.85;;;2.52;;
36215;SDS011;22257;52.232;21.084;2022-08-01T09:31:40;6.95;;;2.70;;
36215;SDS011;22257;52.232;21.084;2022-08-01T09:34:08;6.45;;;2.22;;
36215;SDS011;22257;52.232;21.084;2022-08-01T09:36:57;5.05;;;1.67;;
36215;SDS011;22257;52.232;21.084;2022-08-01T09:39:23;7.10;;;2.62;;
36215;SDS011;22257;52.232;21.084;2022-08-01T09:41:58;3.85;;;1.77;;
36215;SDS011;22257;52.232;21.084;2022-08-01T09:44:37;5.90;;;2.20;;
36215;SDS011;22257;52.232;21.084;2022-08-01T09:47:04;4.70;;;2.08;;
36215;SDS011;22257;52.232;21.084;2022-08-01T09:49:31;6.10;;;2.65;;
36215;SDS011;22257;52.232;21.084;2022-08-01T09:52:09;4.92;;;2.12;;
36215;SDS011;22257;52.232;21.084;2022-08-01T09:54:42;5.80;;;2.40;;
36215;SDS011;22257;52.232;21.084;2022-08-01T09:57:13;8.55;;;2.10;;
36215;SDS011;22257;52.232;21.084;2022-08-01T09:59:40;7.37;;;2.27;;
36215;SDS011;22257;52.232;21.084;2022-08-01T10:02:09;5.80;;;2.00;;
36215;SDS011;22257;52.232;21.084;2022-08-01T10:07:15;6.83;;;2.30;;
36215;SDS011;22257;52.232;21.084;2022-08-01T10:09:41;7.22;;;2.20;;
36215;SDS011;22257;52.232;21.084;2022-08-01T10:12:08;7.97;;;2.10;;
36215;SDS011;22257;52.232;21.084;2022-08-01T10:14:36;5.87;;;2.10;;
36215;SDS011;22257;52.232;21.084;2022-08-01T10:17:03;7.08;;;2.15;;
36215;SDS011;22257;52.232;21.084;2022-08-01T10:19:32;5.42;;;1.95;;
36215;SDS011;22257;52.232;21.084;2022-08-01T10:22:02;6.40;;;2.00;;
36215;SDS011;22257;52.232;21.084;2022-08-01T10:27:03;6.05;;;2.00;;
36215;SDS011;22257;52.232;21.084;2022-08-01T10:29:37;10.55;;;2.40;;
36215;SDS011;22257;52.232;21.084;2022-08-01T10:32:05;10.63;;;2.40;;
36215;SDS011;22257;52.232;21.084;2022-08-01T10:34:34;10.63;;;2.43;;
36215;SDS011;22257;52.232;21.084;2022-08-01T10:37:03;4.05;;;1.77;;
36215;SDS011;22257;52.232;21.084;2022-08-01T10:39:31;4.67;;;2.15;;
36215;SDS011;22257;52.232;21.084;2022-08-01T10:41:58;11.30;;;2.05;;
36215;SDS011;22257;52.232;21.084;2022-08-01T10:44:25;7.20;;;2.35;;
36215;SDS011;22257;52.232;21.084;2022-08-01T10:46:54;4.58;;;1.42;;
36215;SDS011;22257;52.232;21.084;2022-08-01T10:49:26;8.98;;;1.92;;
36215;SDS011;22257;52.232;21.084;2022-08-01T10:51:55;3.47;;;1.80;;
36215;SDS011;22257;52.232;21.084;2022-08-01T10:54:25;4.08;;;1.80;;
36215;SDS011;22257;52.232;21.084;2022-08-01T10:56:53;5.00;;;1.77;;
36215;SDS011;22257;52.232;21.084;2022-08-01T11:02:04;5.15;;;2.15;;
36215;SDS011;22257;52.232;21.084;2022-08-01T11:07:08;5.75;;;1.55;;
36215;SDS011;22257;52.232;21.084;2022-08-01T11:09:46;9.78;;;1.98;;
36215;SDS011;22257;52.232;21.084;2022-08-01T11:12:17;5.03;;;1.57;;
36215;SDS011;22257;52.232;21.084;2022-08-01T11:20:11;6.42;;;2.00;;
36215;SDS011;22257;52.232;21.084;2022-08-01T11:30:51;11.93;;;2.00;;
36215;SDS011;22257;52.232;21.084;2022-08-01T11:41:21;6.50;;;2.00;;
36215;SDS011;22257;52.232;21.084;2022-08-01T11:50:00;3.40;;;1.82;;
36215;SDS011;22257;52.232;21.084;2022-08-01T11:54:38;5.62;;;1.90;;
36215;SDS011;22257;52.232;21.084;2022-08-01T11:57:07;6.25;;;2.30;;
36215;SDS011;22257;52.232;21.084;2022-08-01T11:59:42;13.03;;;2.15;;
36215;SDS011;22257;52.232;21.084;2022-08-01T12:02:29;9.50;;;2.35;;
36215;SDS011;22257;52.232;21.084;2022-08-01T12:04:58;5.78;;;1.87;;
36215;SDS011;22257;52.232;21.084;2022-08-01T12:07:37;4.28;;;2.15;;
36215;SDS011;22257;52.232;21.084;2022-08-01T12:10:11;7.92;;;2.42;;
36215;SDS011;22257;52.232;21.084;2022-08-01T12:12:45;6.85;;;2.05;;
36215;SDS011;22257;52.232;21.084;2022-08-01T12:15:20;5.03;;;1.82;;
36215;SDS011;22257;52.232;21.084;2022-08-01T12:17:49;4.12;;;2.12;;
36215;SDS011;22257;52.232;21.084;2022-08-01T12:20:20;6.85;;;2.08;;
36215;SDS011;22257;52.232;21.084;2022-08-01T12:22:52;5.87;;;2.08;;
36215;SDS011;22257;52.232;21.084;2022-08-01T12:25:20;5.62;;;1.87;;
36215;SDS011;22257;52.232;21.084;2022-08-01T12:27:47;4.65;;;2.00;;
36215;SDS011;22257;52.232;21.084;2022-08-01T12:30:15;9.60;;;1.90;;
36215;SDS011;22257;52.232;21.084;2022-08-01T12:32:48;2.42;;;1.50;;
36215;SDS011;22257;52.232;21.084;2022-08-01T12:35:19;6.83;;;1.98;;
36215;SDS011;22257;52.232;21.084;2022-08-01T12:37:52;3.87;;;1.65;;
36215;SDS011;22257;52.232;21.084;2022-08-01T12:40:27;4.42;;;1.90;;
36215;SDS011;22257;52.232;21.084;2022-08-01T12:42:55;3.37;;;1.67;;
36215;SDS011;22257;52.232;21.084;2022-08-01T12:45:25;9.58;;;2.40;;
36215;SDS011;22257;52.232;21.084;2022-08-01T12:47:56;4.85;;;1.70;;
36215;SDS011;22257;52.232;21.084;2022-08-01T12:50:26;3.60;;;1.27;;
36215;SDS011;22257;52.232;21.084;2022-08-01T12:55:22;6.10;;;2.10;;
36215;SDS011;22257;52.232;21.084;2022-08-01T13:00:31;5.65;;;1.77;;
36215;SDS011;22257;52.232;21.084;2022-08-01T13:03:08;4.95;;;2.17;;
36215;SDS011;22257;52.232;21.084;2022-08-01T13:05:49;4.12;;;1.80;;
36215;SDS011;22257;52.232;21.084;2022-08-01T13:08:21;8.05;;;1.98;;
36215;SDS011;22257;52.232;21.084;2022-08-01T13:10:49;8.08;;;2.10;;
36215;SDS011;22257;52.232;21.084;2022-08-01T13:13:17;9.35;;;1.80;;
36215;SDS011;22257;52.232;21.084;2022-08-01T13:15:45;9.78;;;1.90;;
36215;SDS011;22257;52.232;21.084;2022-08-01T13:21:09;6.15;;;2.20;;
36215;SDS011;22257;52.232;21.084;2022-08-01T13:23:37;10.18;;;1.85;;
36215;SDS011;22257;52.232;21.084;2022-08-01T13:26:05;4.97;;;1.80;;
36215;SDS011;22257;52.232;21.084;2022-08-01T13:28:31;3.25;;;1.40;;
36215;SDS011;22257;52.232;21.084;2022-08-01T13:31:00;6.00;;;1.70;;
36215;SDS011;22257;52.232;21.084;2022-08-01T13:36:11;7.92;;;2.17;;
36215;SDS011;22257;52.232;21.084;2022-08-01T13:38:38;6.97;;;2.42;;
36215;SDS011;22257;52.232;21.084;2022-08-01T13:41:24;8.90;;;1.92;;
36215;SDS011;22257;52.232;21.084;2022-08-01T13:43:50;9.65;;;2.10;;
36215;SDS011;22257;52.232;21.084;2022-08-01T13:46:17;11.35;;;1.90;;
36215;SDS011;22257;52.232;21.084;2022-08-01T13:48:44;5.40;;;1.62;;
36215;SDS011;22257;52.232;21.084;2022-08-01T13:51:10;8.33;;;2.37;;
36215;SDS011;22257;52.232;21.084;2022-08-01T13:53:36;7.08;;;2.02;;
36215;SDS011;22257;52.232;21.084;2022-08-01T13:56:02;5.45;;;1.65;;
36215;SDS011;22257;52.232;21.084;2022-08-01T13:58:29;4.20;;;2.00;;
36215;SDS011;22257;52.232;21.084;2022-08-01T14:00:55;4.17;;;1.85;;
36215;SDS011;22257;52.232;21.084;2022-08-01T14:03:22;8.15;;;1.70;;
36215;SDS011;22257;52.232;21.084;2022-08-01T14:05:48;8.20;;;2.00;;
36215;SDS011;22257;52.232;21.084;2022-08-01T14:08:15;3.67;;;2.10;;
36215;SDS011;22257;52.232;21.084;2022-08-01T14:10:41;5.85;;;1.70;;
36215;SDS011;22257;52.232;21.084;2022-08-01T14:13:07;4.55;;;1.90;;
36215;SDS011;22257;52.232;21.084;2022-08-01T14:15:33;6.42;;;2.40;;
36215;SDS011;22257;52.232;21.084;2022-08-01T14:18:00;11.78;;;2.70;;
36215;SDS011;22257;52.232;21.084;2022-08-01T14:20:27;7.80;;;2.08;;
36215;SDS011;22257;52.232;21.084;2022-08-01T14:22:53;4.70;;;2.50;;
36215;SDS011;22257;52.232;21.084;2022-08-01T14:25:19;11.50;;;2.20;;
36215;SDS011;22257;52.232;21.084;2022-08-01T14:27:46;6.42;;;2.37;;
36215;SDS011;22257;52.232;21.084;2022-08-01T14:30:13;5.80;;;1.90;;
36215;SDS011;22257;52.232;21.084;2022-08-01T14:32:40;5.62;;;2.20;;
36215;SDS011;22257;52.232;21.084;2022-08-01T14:35:06;4.75;;;2.45;;
36215;SDS011;22257;52.232;21.084;2022-08-01T14:37:34;7.90;;;2.47;;
36215;SDS011;22257;52.232;21.084;2022-08-01T14:40:00;4.97;;;2.33;;
36215;SDS011;22257;52.232;21.084;2022-08-01T14:42:28;2.17;;;1.98;;
36215;SDS011;22257;52.232;21.084;2022-08-01T14:44:56;9.03;;;2.20;;
36215;SDS011;22257;52.232;21.084;2022-08-01T14:47:22;6.65;;;2.22;;
36215;SDS011;22257;52.232;21.084;2022-08-01T14:49:49;4.65;;;2.20;;
36215;SDS011;22257;52.232;21.084;2022-08-01T14:52:16;5.40;;;2.08;;
36215;SDS011;22257;52.232;21.084;2022-08-01T14:54:43;4.72;;;2.00;;
36215;SDS011;22257;52.232;21.084;2022-08-01T14:57:09;9.33;;;2.17;;
36215;SDS011;22257;52.232;21.084;2022-08-01T14:59:35;7.87;;;2.08;;
36215;SDS011;22257;52.232;21.084;2022-08-01T15:02:01;6.92;;;2.70;;
36215;SDS011;22257;52.232;21.084;2022-08-01T15:04:28;7.10;;;1.82;;
36215;SDS011;22257;52.232;21.084;2022-08-01T15:06:56;3.33;;;1.98;;
36215;SDS011;22257;52.232;21.084;2022-08-01T15:09:22;3.90;;;1.80;;
36215;SDS011;22257;52.232;21.084;2022-08-01T15:11:48;5.30;;;1.82;;
36215;SDS011;22257;52.232;21.084;2022-08-01T15:14:15;4.33;;;1.90;;
36215;SDS011;22257;52.232;21.084;2022-08-01T15:16:59;4.60;;;1.92;;
36215;SDS011;22257;52.232;21.084;2022-08-01T15:19:25;6.72;;;2.98;;
36215;SDS011;22257;52.232;21.084;2022-08-01T15:21:52;5.90;;;2.42;;
36215;SDS011;22257;52.232;21.084;2022-08-01T15:24:18;7.40;;;2.35;;
36215;SDS011;22257;52.232;21.084;2022-08-01T15:26:44;4.62;;;2.02;;
36215;SDS011;22257;52.232;21.084;2022-08-01T15:29:10;2.62;;;1.92;;
36215;SDS011;22257;52.232;21.084;2022-08-01T15:31:38;4.47;;;2.20;;